createdAt,value
2023-04-07T00:04:37.297Z,100108.81
2023-04-07T00:09:38.588Z,100109.56
2023-04-07T00:14:39.770Z,100103.81
2023-04-07T00:19:41.063Z,100112.41
2023-04-07T00:24:42.311Z,100109.03
2023-04-07T00:29:46.871Z,100103.81
2023-04-07T00:34:48.054Z,100103.81
2023-04-07T00:39:51.269Z,100107.97
2023-04-07T00:44:52.475Z,100094.91
2023-04-07T00:49:53.670Z,100098.03
2023-04-07T00:54:55.179Z,100094.38
2023-04-07T00:59:56.458Z,100087.53
2023-04-07T01:04:57.799Z,100086.50
2023-04-07T01:10:00.649Z,100080.50
2023-04-07T01:15:01.888Z,100082.31
2023-04-07T01:20:08.275Z,100078.16
2023-04-07T01:25:09.512Z,100082.31
2023-04-07T01:30:10.786Z,100089.66
2023-04-07T01:35:11.939Z,100086.50
2023-04-07T01:40:13.160Z,100075.28
2023-04-07T01:45:14.444Z,100081.00
2023-04-07T01:50:16.760Z,100083.34
2023-04-07T01:55:17.960Z,100076.50
2023-04-07T02:00:19.129Z,100075.19
2023-04-07T02:05:20.401Z,100066.00
2023-04-07T02:10:21.597Z,100066.53
2023-04-07T02:15:22.789Z,100067.31
2023-04-07T02:20:24.005Z,100067.31
2023-04-07T02:25:25.461Z,100071.19
2023-04-07T02:30:26.670Z,100066.78
2023-04-07T02:35:27.877Z,100073.53
2023-04-07T02:40:29.069Z,100076.69
2023-04-07T02:45:30.274Z,100079.56
2023-04-07T02:50:31.663Z,100082.69
2023-04-07T02:55:32.845Z,100078.72
2023-04-07T03:00:33.991Z,100078.94
2023-04-07T03:05:35.210Z,100080.25
2023-04-07T03:10:36.472Z,100078.94
2023-04-07T03:15:37.639Z,100079.94
2023-04-07T03:20:39.079Z,100076.78
2023-04-07T03:25:40.716Z,100084.06
2023-04-07T03:30:41.968Z,100079.06
2023-04-07T03:35:43.221Z,100081.91
2023-04-07T03:40:44.386Z,100075.34
2023-04-07T03:45:45.942Z,100081.59
2023-04-07T03:50:47.272Z,100081.31
2023-04-07T03:55:48.460Z,100071.34
2023-04-07T04:00:49.620Z,100083.38
2023-04-07T04:05:51.027Z,100071.84
2023-04-07T04:10:52.253Z,100086.50
2023-04-07T04:15:53.530Z,100094.34
2023-04-07T04:20:54.772Z,100095.38
2023-04-07T04:25:56.829Z,100097.72
2023-04-07T04:30:58.050Z,100103.25
2023-04-07T04:35:59.222Z,100108.97
2023-04-07T04:41:00.491Z,100105.31
2023-04-07T04:46:01.676Z,100110.09
2023-04-07T04:51:02.827Z,100108.28
2023-04-07T04:56:04.049Z,100122.69
2023-04-07T05:01:05.672Z,100124.28
2023-04-07T05:06:06.878Z,100129.03
2023-04-07T05:11:08.080Z,100136.38
2023-04-07T05:16:09.336Z,100131.69
2023-04-07T05:21:10.987Z,100132.44
2023-04-07T05:26:12.238Z,100137.44
2023-04-07T05:31:13.488Z,100139.03
2023-04-07T05:36:14.801Z,100143.19
2023-04-07T05:41:16.083Z,100148.69
2023-04-07T05:46:17.285Z,100151.78
2023-04-07T05:51:18.584Z,100152.59
2023-04-07T05:56:19.718Z,100159.94
2023-04-07T06:01:21.131Z,100163.09
2023-04-07T06:06:22.296Z,100166.47
2023-04-07T06:11:23.470Z,100176.66
2023-04-07T06:16:24.672Z,100180.84
2023-04-07T06:21:27.583Z,100183.75
2023-04-07T06:26:28.855Z,100187.63
2023-04-07T06:31:30.239Z,100189.28
2023-04-07T06:36:31.483Z,100198.69
2023-04-07T06:41:32.991Z,100188.72
2023-04-07T06:46:34.395Z,100197.09
2023-04-07T06:51:35.635Z,100200.72
2023-04-07T06:56:36.892Z,100212.25
2023-04-07T07:01:38.217Z,100214.88
2023-04-07T07:06:39.530Z,100211.72
2023-04-07T07:11:41.139Z,100221.13
2023-04-07T07:16:42.351Z,100227.16
2023-04-07T07:21:43.549Z,100231.06
2023-04-07T07:26:45.881Z,100237.06
2023-04-07T07:31:47.071Z,100242.28
2023-04-07T07:36:48.262Z,100242.56
2023-04-07T07:41:50.574Z,100243.59
2023-04-07T07:46:51.827Z,100254.06
2023-04-07T07:51:53.204Z,100258.44
2023-04-07T07:56:54.424Z,100260.22
2023-04-07T08:01:55.829Z,100260.44
2023-04-07T08:06:57.123Z,100266.50
2023-04-07T08:11:58.346Z,100270.16
2023-04-07T08:16:59.584Z,100283.72
2023-04-07T08:22:00.790Z,100278.22
2023-04-07T08:27:02.187Z,100285.75
2023-04-07T08:32:03.443Z,100291.53
2023-04-07T08:37:04.629Z,100296.72
2023-04-07T08:42:05.813Z,100292.50
2023-04-07T08:47:07.865Z,100300.88
2023-04-07T08:52:09.607Z,100307.41
2023-04-07T08:57:11.354Z,100308.13
2023-04-07T09:02:12.551Z,100307.91
2023-04-07T09:07:13.712Z,100312.88
2023-04-07T09:12:14.917Z,100318.06
2023-04-07T09:17:16.187Z,100325.91
2023-04-07T09:22:17.348Z,100329.31
2023-04-07T09:27:18.547Z,100327.47
2023-04-07T09:32:19.677Z,100333.13
2023-04-07T09:37:20.823Z,100329.97
2023-04-07T09:42:22.379Z,100333.09
2023-04-07T09:47:23.620Z,100339.88
2023-04-07T09:52:24.869Z,100339.03
2023-04-07T09:57:26.087Z,100338.19
2023-04-07T10:02:27.369Z,100349.13
2023-04-07T10:07:28.669Z,100342.03
2023-04-07T10:12:31.148Z,100340.56
2023-04-07T10:17:32.555Z,100346.38
2023-04-07T10:22:33.939Z,100352.63
2023-04-07T10:27:35.095Z,100362.00
2023-04-07T10:32:36.483Z,100355.78
2023-04-07T10:37:37.756Z,100364.44
2023-04-07T10:42:38.963Z,100369.31
2023-04-07T10:47:40.135Z,100374.75
2023-04-07T10:52:41.382Z,100382.94
2023-04-07T10:57:42.854Z,100374.03
2023-04-07T11:02:44.402Z,100383.44
2023-04-07T11:07:46.004Z,100381.19
2023-04-07T11:12:47.185Z,100382.16
2023-04-07T11:17:48.341Z,100385.78
2023-04-07T11:22:49.545Z,100388.81
2023-04-07T11:27:50.711Z,100388.69
2023-04-07T11:32:51.885Z,100381.59
2023-04-07T11:37:53.096Z,100395.19
2023-04-07T11:42:54.305Z,100396.94
2023-04-07T11:47:55.783Z,100398.69
2023-04-07T11:52:57.029Z,100403.00
2023-04-07T11:57:58.228Z,100411.38
2023-04-07T12:02:59.490Z,100416.56
2023-04-07T12:08:00.738Z,100417.09
2023-04-07T12:13:02.353Z,100425.44
2023-04-07T12:18:03.599Z,100415.47
2023-04-07T12:23:04.869Z,100425.22
2023-04-07T12:28:06.045Z,100435.63
2023-04-07T12:33:07.269Z,100438.00
2023-04-07T12:38:08.597Z,100439.44
2023-04-07T12:43:09.824Z,100437.38
2023-04-07T12:48:11.109Z,100436.06
2023-04-07T12:53:12.347Z,100446.88
2023-04-07T12:58:13.568Z,100443.88
2023-04-07T13:03:14.948Z,100451.63
2023-04-07T13:08:16.272Z,100442.53
2023-04-07T13:13:17.468Z,100450.22
2023-04-07T13:18:18.677Z,100454.41
2023-04-07T13:23:19.897Z,100462.50
2023-04-07T13:28:21.485Z,100460.47
2023-04-07T13:33:22.742Z,100462.88
2023-04-07T13:38:23.918Z,100459.38
2023-04-07T13:43:25.506Z,100459.09
2023-04-07T13:48:26.700Z,100465.81
2023-04-07T13:53:27.920Z,100461.00
2023-04-07T13:58:30.571Z,100453.69
2023-04-07T14:03:33.213Z,100454.19
2023-04-07T14:08:34.489Z,100455.47
2023-04-07T14:13:36.499Z,100447.25
2023-04-07T14:18:37.780Z,100452.44
2023-04-07T14:23:39.042Z,100454.41
2023-04-07T14:28:40.587Z,100458.13
2023-04-07T14:33:41.829Z,100459.72
2023-04-07T14:38:43.096Z,100466.53
2023-04-07T14:43:44.226Z,100464.72
2023-04-07T14:48:46.120Z,100470.38
2023-04-07T14:53:47.688Z,100462.66
2023-04-07T14:58:48.980Z,100477.19
2023-04-07T15:03:51.296Z,100477.84
2023-04-07T15:08:52.761Z,100481.44
2023-04-07T15:13:54.473Z,100486.59
2023-04-07T15:18:56.264Z,100497.00
2023-04-07T15:23:57.422Z,100496.59
2023-04-07T15:28:58.578Z,100500.56
2023-04-07T15:33:59.733Z,100502.78
2023-04-07T15:39:02.141Z,100495.66
2023-04-07T15:44:03.386Z,100496.63
2023-04-07T15:49:04.592Z,100497.72
2023-04-07T15:54:05.737Z,100499.91
2023-04-07T15:59:06.933Z,100505.47
2023-04-07T16:04:08.226Z,100497.25
2023-04-07T16:09:09.614Z,100489.50
2023-04-07T16:14:10.811Z,100507.25
2023-04-07T16:19:12.800Z,100508.78
2023-04-07T16:24:14.279Z,100511.84
2023-04-07T16:29:15.602Z,100522.53
2023-04-07T16:34:16.940Z,100526.59
2023-04-07T16:39:18.272Z,100524.19
2023-04-07T16:44:22.023Z,100531.69
2023-04-07T16:49:23.270Z,100536.91
2023-04-07T16:54:24.518Z,100533.22
2023-04-07T16:59:25.928Z,100542.00
2023-04-07T17:04:27.249Z,100557.41
2023-04-07T17:09:28.529Z,100559.63
2023-04-07T17:14:29.993Z,100566.50
2023-04-07T17:19:31.369Z,100572.78
2023-04-07T17:24:32.620Z,100583.00
2023-04-07T17:29:33.800Z,100588.00
2023-04-07T17:34:35.257Z,100602.69
2023-04-07T17:39:36.389Z,100607.69
2023-04-07T17:44:37.569Z,100617.97
2023-04-07T17:49:39.483Z,100608.91
2023-04-07T17:54:41.152Z,100625.97
2023-04-07T17:59:42.340Z,100626.50
2023-04-07T18:04:43.630Z,100638.56
2023-04-07T18:09:44.923Z,100644.88
2023-04-07T18:14:46.145Z,100642.53
2023-04-07T18:19:47.420Z,100638.88
2023-04-07T18:24:48.576Z,100644.38
2023-04-07T18:29:49.787Z,100644.41
2023-04-07T18:34:51.119Z,100656.47
2023-04-07T18:39:53.668Z,100658.53
2023-04-07T18:44:54.892Z,100668.25
2023-04-07T18:49:58.157Z,100677.97
2023-04-07T18:54:59.342Z,100679.78
2023-04-07T19:00:00.554Z,100697.09
2023-04-07T19:05:01.846Z,100702.38
2023-04-07T19:10:03.066Z,100702.63
2023-04-07T19:15:04.201Z,100702.91
2023-04-07T19:20:05.412Z,100702.91
2023-04-07T19:25:06.597Z,100711.00
2023-04-07T19:30:07.777Z,100718.88
2023-04-07T19:35:09.069Z,100715.22
2023-04-07T19:40:10.293Z,100720.47
2023-04-07T19:45:11.576Z,100734.59
2023-04-07T19:50:14.251Z,100733.06
2023-04-07T19:55:15.493Z,100735.66
2023-04-07T20:00:16.929Z,100738.81
2023-04-07T20:05:18.125Z,100745.09
2023-04-07T20:10:19.262Z,100749.28
2023-04-07T20:15:21.248Z,100741.69
2023-04-07T20:20:23.497Z,100746.69
2023-04-07T20:25:24.738Z,100756.34
2023-04-07T20:30:26.265Z,100769.72
2023-04-07T20:35:27.491Z,100767.66
2023-04-07T20:40:28.765Z,100771.81
2023-04-07T20:45:29.992Z,100775.50
2023-04-07T20:50:31.210Z,100772.63
2023-04-07T20:55:32.721Z,100777.56
2023-04-07T21:00:33.911Z,100781.00
2023-04-07T21:05:35.229Z,100774.44
2023-04-07T21:10:36.673Z,100782.81
2023-04-07T21:15:37.964Z,100783.88
2023-04-07T21:20:39.242Z,100779.44
2023-04-07T21:25:40.451Z,100788.88
2023-04-07T21:30:44.815Z,100787.28
2023-04-07T21:35:47.127Z,100784.13
2023-04-07T21:40:49.575Z,100793.78
2023-04-07T21:45:50.743Z,100789.09
2023-04-07T21:50:52.101Z,100791.72
2023-04-07T21:55:53.380Z,100791.41
2023-04-07T22:00:54.739Z,100795.09
2023-04-07T22:05:56.398Z,100796.41
2023-04-07T22:10:58.733Z,100794.84
2023-04-07T22:16:02.096Z,100798.50
2023-04-07T22:21:03.289Z,100796.41
2023-04-07T22:26:04.510Z,100789.88
2023-04-07T22:31:05.743Z,100799.03
2023-04-07T22:36:07.024Z,100801.91
2023-04-07T22:41:08.221Z,100807.41
2023-04-07T22:46:09.427Z,100814.97
2023-04-07T22:51:11.027Z,100812.66
2023-04-07T22:56:12.200Z,100814.97
2023-04-07T23:01:13.407Z,100814.19
2023-04-07T23:06:14.692Z,100819.44
2023-04-07T23:11:16.327Z,100826.75
2023-04-07T23:16:17.604Z,100833.59
2023-04-07T23:21:18.760Z,100831.50
2023-04-07T23:26:20.072Z,100835.41
2023-04-07T23:31:21.311Z,100833.28
2023-04-07T23:36:22.609Z,100833.84
2023-04-07T23:41:23.836Z,100839.34
2023-04-07T23:46:25.194Z,100839.34
2023-04-07T23:51:27.635Z,100852.47
2023-04-07T23:56:28.987Z,100850.31
